createdAt,value
2022-10-08T00:01:06.915Z,3.75
2022-10-08T00:03:37.109Z,4.35
2022-10-08T00:06:07.969Z,4.28
2022-10-08T00:08:37.298Z,4.13
2022-10-08T00:11:07.087Z,4.18
2022-10-08T00:13:42.121Z,4.75
2022-10-08T00:16:16.789Z,3.97
2022-10-08T00:18:45.740Z,4.13
2022-10-08T00:21:17.885Z,4.18
2022-10-08T00:23:48.805Z,3.90
2022-10-08T00:26:18.118Z,4.10
2022-10-08T00:28:47.058Z,4.10
2022-10-08T00:31:17.737Z,4.22
2022-10-08T00:33:44.451Z,4.38
2022-10-08T00:36:12.660Z,4.00
2022-10-08T00:38:40.131Z,3.47
2022-10-08T00:41:16.321Z,3.88
2022-10-08T00:43:46.614Z,3.75
2022-10-08T00:46:30.653Z,3.53
2022-10-08T00:49:14.743Z,3.63
2022-10-08T00:51:44.675Z,3.78
2022-10-08T00:54:13.302Z,3.80
2022-10-08T00:56:41.237Z,3.30
2022-10-08T00:59:09.648Z,3.50
2022-10-08T01:01:36.957Z,3.38
2022-10-08T01:04:07.885Z,3.70
2022-10-08T01:06:49.582Z,3.83
2022-10-08T01:09:26.489Z,3.78
2022-10-08T01:12:11.102Z,3.25
2022-10-08T01:15:04.140Z,3.38
2022-10-08T01:17:51.082Z,3.85
2022-10-08T01:20:37.183Z,4.63
2022-10-08T01:23:19.683Z,3.67
2022-10-08T01:26:05.602Z,3.58
2022-10-08T01:28:40.647Z,3.85
2022-10-08T01:31:12.233Z,3.67
2022-10-08T01:34:02.973Z,3.92
2022-10-08T01:36:36.420Z,3.80
2022-10-08T01:39:09.027Z,3.45
2022-10-08T01:41:36.014Z,3.70
2022-10-08T01:44:12.456Z,3.65
2022-10-08T01:46:43.821Z,4.30
2022-10-08T01:49:17.311Z,2.90
2022-10-08T01:52:12.609Z,3.47
2022-10-08T01:54:43.076Z,3.25
2022-10-08T01:57:11.809Z,3.00
2022-10-08T01:59:55.051Z,4.57
2022-10-08T02:02:24.063Z,3.30
2022-10-08T02:04:53.297Z,3.42
2022-10-08T02:07:23.570Z,4.10
2022-10-08T02:09:53.755Z,3.47
2022-10-08T02:12:24.667Z,4.63
2022-10-08T02:14:54.056Z,3.63
2022-10-08T02:17:35.755Z,3.20
2022-10-08T02:20:11.370Z,3.35
2022-10-08T02:22:52.838Z,3.75
2022-10-08T02:25:57.177Z,3.35
2022-10-08T02:28:40.599Z,3.63
2022-10-08T02:31:15.098Z,3.78
2022-10-08T02:33:55.054Z,3.45
2022-10-08T02:36:26.848Z,3.15
2022-10-08T02:38:56.257Z,2.92
2022-10-08T02:41:28.619Z,2.90
2022-10-08T02:43:59.576Z,3.97
2022-10-08T02:46:29.401Z,2.90
2022-10-08T02:49:05.561Z,2.70
2022-10-08T02:51:37.365Z,3.47
2022-10-08T02:54:07.308Z,3.42
2022-10-08T02:56:48.239Z,3.85
2022-10-08T02:59:17.987Z,3.37
2022-10-08T03:01:59.869Z,3.20
2022-10-08T03:04:40.887Z,3.15
2022-10-08T03:07:08.542Z,3.67
2022-10-08T03:09:39.747Z,3.22
2022-10-08T03:12:07.473Z,3.38
2022-10-08T03:14:43.160Z,3.20
2022-10-08T03:17:13.854Z,2.75
2022-10-08T03:19:40.481Z,3.58
2022-10-08T03:22:08.040Z,3.47
2022-10-08T03:24:36.010Z,4.15
2022-10-08T03:27:03.446Z,4.13
2022-10-08T03:29:30.299Z,3.08
2022-10-08T03:31:56.982Z,4.10
2022-10-08T03:34:25.571Z,3.63
2022-10-08T03:36:52.243Z,4.25
2022-10-08T03:39:19.060Z,3.63
2022-10-08T03:41:45.691Z,3.42
2022-10-08T03:44:12.446Z,3.10
2022-10-08T03:46:39.267Z,4.03
2022-10-08T03:49:06.373Z,3.60
2022-10-08T03:51:33.067Z,3.83
2022-10-08T03:53:59.822Z,3.80
2022-10-08T03:56:26.757Z,4.00
2022-10-08T03:58:57.068Z,4.03
2022-10-08T04:01:25.117Z,5.22
2022-10-08T04:03:52.420Z,3.47
2022-10-08T04:06:19.762Z,4.10
2022-10-08T04:08:46.444Z,3.67
2022-10-08T04:11:15.323Z,4.18
2022-10-08T04:13:42.752Z,4.07
2022-10-08T04:16:17.217Z,3.97
2022-10-08T04:18:44.328Z,3.78
2022-10-08T04:21:13.714Z,4.05
2022-10-08T04:23:41.914Z,4.88
2022-10-08T04:26:10.892Z,3.50
2022-10-08T04:28:39.315Z,3.47
2022-10-08T04:31:17.057Z,3.97
2022-10-08T04:33:45.611Z,3.70
2022-10-08T04:36:21.018Z,3.50
2022-10-08T04:38:48.278Z,3.45
2022-10-08T04:41:17.599Z,3.50
2022-10-08T04:43:45.187Z,3.88
2022-10-08T04:46:14.507Z,3.92
2022-10-08T04:48:49.137Z,4.35
2022-10-08T04:51:16.496Z,4.22
2022-10-08T04:53:43.918Z,4.07
2022-10-08T04:56:23.312Z,4.13
2022-10-08T04:58:50.409Z,4.15
2022-10-08T05:01:19.686Z,4.30
2022-10-08T05:03:49.273Z,4.05
2022-10-08T05:06:17.656Z,4.55
2022-10-08T05:08:45.562Z,4.47
2022-10-08T05:11:12.838Z,5.20
2022-10-08T05:13:40.030Z,5.05
2022-10-08T05:16:13.198Z,5.03
2022-10-08T05:18:41.146Z,5.35
2022-10-08T05:21:11.488Z,6.35
2022-10-08T05:23:39.162Z,5.75
2022-10-08T05:26:31.888Z,6.22
2022-10-08T05:29:07.434Z,7.00
2022-10-08T05:31:36.754Z,6.70
2022-10-08T05:34:04.012Z,6.35
2022-10-08T05:36:32.663Z,7.32
2022-10-08T05:39:00.609Z,9.82
2022-10-08T05:41:30.294Z,6.53
2022-10-08T05:43:58.027Z,7.80
2022-10-08T05:46:26.781Z,7.32
2022-10-08T05:48:55.352Z,6.53
2022-10-08T05:51:22.826Z,7.20
2022-10-08T05:53:52.068Z,7.85
2022-10-08T05:56:21.908Z,8.88
2022-10-08T05:58:49.645Z,8.68
2022-10-08T06:01:22.375Z,10.60
2022-10-08T06:03:51.274Z,12.55
2022-10-08T06:06:18.552Z,12.25
2022-10-08T06:08:45.811Z,13.23
2022-10-08T06:11:12.567Z,15.70
2022-10-08T06:13:39.458Z,16.42
2022-10-08T06:16:09.454Z,16.40
2022-10-08T06:18:38.921Z,16.60
2022-10-08T06:21:10.698Z,17.45
2022-10-08T06:23:38.539Z,21.05
2022-10-08T06:26:06.996Z,21.50
2022-10-08T06:28:35.392Z,20.48
2022-10-08T06:31:02.239Z,19.98
2022-10-08T06:33:29.748Z,22.20
2022-10-08T06:35:56.365Z,23.50
2022-10-08T06:38:23.247Z,24.42
2022-10-08T06:40:49.909Z,23.17
2022-10-08T06:43:19.020Z,23.00
2022-10-08T06:45:46.960Z,24.90
2022-10-08T06:48:13.950Z,24.23
2022-10-08T06:50:41.165Z,22.35
2022-10-08T06:53:09.776Z,22.92
2022-10-08T06:55:37.405Z,22.35
2022-10-08T06:58:05.288Z,22.65
2022-10-08T07:00:32.729Z,22.83
2022-10-08T07:02:59.483Z,21.63
2022-10-08T07:05:26.158Z,23.17
2022-10-08T07:07:52.847Z,21.30
2022-10-08T07:10:19.977Z,20.83
2022-10-08T07:12:46.928Z,19.80
2022-10-08T07:15:13.945Z,20.50
2022-10-08T07:17:40.730Z,19.55
2022-10-08T07:20:08.060Z,19.48
2022-10-08T07:22:34.743Z,18.80
2022-10-08T07:25:01.652Z,19.30
2022-10-08T07:27:28.768Z,20.30
2022-10-08T07:29:55.548Z,20.63
2022-10-08T07:32:22.240Z,21.15
2022-10-08T07:34:48.914Z,19.42
2022-10-08T07:37:15.586Z,18.65
2022-10-08T07:39:42.270Z,17.60
2022-10-08T07:42:08.968Z,17.23
2022-10-08T07:44:35.634Z,18.00
2022-10-08T07:47:02.431Z,17.25
2022-10-08T07:49:30.193Z,16.95
2022-10-08T07:51:56.976Z,16.52
2022-10-08T07:54:23.882Z,15.93
2022-10-08T07:56:50.710Z,16.05
2022-10-08T07:59:17.408Z,17.08
2022-10-08T08:01:44.407Z,16.95
2022-10-08T08:04:11.984Z,16.15
2022-10-08T08:06:44.234Z,15.77
2022-10-08T08:09:11.886Z,15.52
2022-10-08T08:11:39.936Z,16.20
2022-10-08T08:14:07.085Z,15.68
2022-10-08T08:16:33.954Z,15.85
2022-10-08T08:19:02.008Z,17.17
2022-10-08T08:21:35.053Z,15.30
2022-10-08T08:24:10.930Z,15.40
2022-10-08T08:26:40.611Z,15.13
2022-10-08T08:29:13.258Z,15.48
2022-10-08T08:31:48.178Z,14.80
2022-10-08T08:34:18.137Z,15.23
2022-10-08T08:36:46.861Z,15.23
2022-10-08T08:39:22.967Z,14.07
2022-10-08T08:41:49.642Z,13.68
2022-10-08T08:44:44.855Z,13.73
2022-10-08T08:47:23.488Z,12.98
2022-10-08T08:49:55.059Z,13.23
2022-10-08T08:52:26.353Z,12.25
2022-10-08T08:54:54.650Z,11.30
2022-10-08T08:57:54.988Z,11.07
2022-10-08T09:00:24.476Z,10.43
2022-10-08T09:03:10.519Z,10.25
2022-10-08T09:05:42.430Z,9.30
2022-10-08T09:08:18.780Z,9.52
2022-10-08T09:10:58.313Z,7.97
2022-10-08T09:13:30.716Z,7.10
2022-10-08T09:15:58.353Z,6.45
2022-10-08T09:18:25.129Z,6.00
2022-10-08T09:20:51.957Z,6.47
2022-10-08T09:23:21.794Z,5.45
2022-10-08T09:26:00.499Z,4.95
2022-10-08T09:28:44.584Z,3.22
2022-10-08T09:31:25.461Z,3.45
2022-10-08T09:33:57.203Z,2.83
2022-10-08T09:36:33.280Z,2.80
2022-10-08T09:39:01.882Z,2.33
2022-10-08T09:41:30.225Z,3.00
2022-10-08T09:44:45.895Z,1.90
2022-10-08T09:47:15.520Z,2.60
2022-10-08T09:49:43.460Z,2.85
2022-10-08T09:52:27.320Z,2.33
2022-10-08T09:55:07.440Z,2.10
2022-10-08T09:57:43.881Z,2.03
2022-10-08T10:00:38.041Z,2.47
2022-10-08T10:03:07.044Z,2.17
2022-10-08T10:05:36.183Z,2.15
2022-10-08T10:08:03.472Z,1.63
2022-10-08T10:10:40.367Z,1.70
2022-10-08T10:13:13.910Z,1.33
2022-10-08T10:15:46.556Z,1.75
2022-10-08T10:18:21.006Z,1.50
2022-10-08T10:20:59.571Z,1.58
2022-10-08T10:23:41.268Z,1.33
2022-10-08T10:26:13.672Z,1.15
2022-10-08T10:29:00.766Z,1.90
2022-10-08T10:31:48.095Z,1.35
2022-10-08T10:34:25.171Z,0.98
2022-10-08T10:36:55.782Z,2.80
2022-10-08T10:39:45.466Z,2.05
2022-10-08T10:42:25.281Z,1.60
2022-10-08T10:45:00.375Z,1.58
2022-10-08T10:47:33.105Z,1.75
2022-10-08T10:50:03.488Z,1.25
2022-10-08T10:52:57.250Z,1.50
2022-10-08T10:55:54.720Z,1.38
2022-10-08T10:58:40.354Z,1.38
2022-10-08T11:01:55.123Z,1.45
2022-10-08T11:04:36.974Z,1.23
2022-10-08T11:10:09.363Z,1.05
2022-10-08T11:12:48.135Z,1.00
2022-10-08T11:15:38.598Z,1.00
2022-10-08T11:18:29.403Z,0.90
2022-10-08T11:21:19.095Z,1.38
2022-10-08T11:23:51.770Z,1.52
2022-10-08T11:27:06.122Z,2.22
2022-10-08T11:29:45.446Z,2.45
2022-10-08T11:32:15.453Z,1.35
2022-10-08T11:35:07.341Z,1.42
2022-10-08T11:40:28.446Z,1.35
2022-10-08T11:43:13.777Z,1.05
2022-10-08T11:45:42.689Z,0.80
2022-10-08T11:48:32.848Z,1.10
2022-10-08T11:51:33.068Z,1.10
2022-10-08T11:54:14.545Z,1.15
2022-10-08T11:56:51.643Z,1.27
2022-10-08T11:59:30.940Z,1.30
2022-10-08T12:02:00.591Z,1.20
2022-10-08T12:04:35.884Z,1.15
2022-10-08T12:07:08.164Z,1.00
2022-10-08T12:10:01.398Z,0.80
2022-10-08T12:12:48.989Z,0.93
2022-10-08T12:15:24.668Z,1.20
2022-10-08T12:17:58.629Z,1.02
2022-10-08T12:20:28.498Z,0.90
2022-10-08T12:23:02.755Z,1.02
2022-10-08T12:25:48.857Z,1.90
2022-10-08T12:28:35.712Z,1.10
2022-10-08T12:31:32.052Z,0.90
2022-10-08T12:34:14.333Z,1.10
2022-10-08T12:36:57.054Z,1.33
2022-10-08T12:39:35.006Z,1.85
2022-10-08T12:42:07.118Z,1.23
2022-10-08T12:44:47.315Z,1.00
2022-10-08T12:47:23.262Z,1.17
2022-10-08T12:50:24.277Z,1.17
2022-10-08T12:52:51.982Z,1.38
2022-10-08T12:55:22.360Z,1.15
2022-10-08T12:57:51.031Z,1.15
2022-10-08T13:00:22.842Z,1.40
2022-10-08T13:05:30.623Z,1.48
2022-10-08T13:07:58.210Z,1.10
2022-10-08T13:10:29.488Z,1.23
2022-10-08T13:13:00.977Z,1.13
2022-10-08T13:15:27.709Z,1.20
2022-10-08T13:17:54.683Z,1.30
2022-10-08T13:20:23.533Z,1.23
2022-10-08T13:22:51.076Z,1.13
2022-10-08T13:25:37.811Z,1.02
2022-10-08T13:28:16.139Z,1.50
2022-10-08T13:30:46.565Z,0.90
2022-10-08T13:33:22.070Z,0.73
2022-10-08T13:35:55.569Z,1.48
2022-10-08T13:38:26.737Z,1.17
2022-10-08T13:40:58.667Z,1.10
2022-10-08T13:43:26.321Z,1.00
2022-10-08T13:45:53.045Z,1.15
2022-10-08T13:48:19.761Z,1.10
2022-10-08T13:50:50.072Z,1.42
2022-10-08T13:53:19.609Z,1.27
2022-10-08T13:55:48.365Z,1.20
2022-10-08T13:58:19.348Z,1.38
2022-10-08T14:00:47.241Z,1.38
2022-10-08T14:03:14.190Z,1.10
2022-10-08T14:05:43.880Z,1.00
2022-10-08T14:08:22.419Z,0.82
2022-10-08T14:10:49.552Z,0.80
2022-10-08T14:13:16.493Z,0.80
2022-10-08T14:15:43.211Z,1.40
2022-10-08T14:18:09.874Z,1.35
2022-10-08T14:20:37.258Z,1.55
2022-10-08T14:23:03.961Z,1.83
2022-10-08T14:25:31.024Z,1.20
2022-10-08T14:28:01.268Z,1.30
2022-10-08T14:30:28.385Z,1.33
2022-10-08T14:32:55.522Z,1.08
2022-10-08T14:35:22.715Z,2.25
2022-10-08T14:37:50.030Z,1.10
2022-10-08T14:40:22.403Z,1.17
2022-10-08T14:42:49.914Z,1.10
2022-10-08T14:45:17.190Z,0.85
2022-10-08T14:47:43.888Z,1.02
2022-10-08T14:50:10.518Z,1.02
2022-10-08T14:52:41.750Z,1.25
2022-10-08T14:55:10.258Z,1.27
2022-10-08T14:57:36.870Z,1.35
2022-10-08T15:00:04.281Z,1.35
2022-10-08T15:02:30.976Z,1.30
2022-10-08T15:04:57.614Z,1.27
2022-10-08T15:07:24.397Z,0.88
2022-10-08T15:09:51.069Z,1.10
2022-10-08T15:12:17.718Z,0.95
2022-10-08T15:14:44.381Z,1.33
2022-10-08T15:17:11.039Z,1.33
2022-10-08T15:19:37.798Z,1.45
2022-10-08T15:22:04.608Z,1.60
2022-10-08T15:24:31.339Z,1.00
2022-10-08T15:26:58.214Z,1.17
2022-10-08T15:29:24.947Z,0.95
2022-10-08T15:31:52.155Z,1.20
2022-10-08T15:34:19.985Z,1.20
2022-10-08T15:36:47.437Z,1.42
2022-10-08T15:39:17.236Z,0.70
2022-10-08T15:41:49.143Z,1.20
2022-10-08T15:44:18.271Z,1.08
2022-10-08T15:46:49.004Z,1.17
2022-10-08T15:49:16.226Z,1.17
2022-10-08T15:51:43.161Z,1.33
2022-10-08T15:54:09.853Z,1.30
2022-10-08T15:56:36.526Z,1.30
2022-10-08T15:59:03.840Z,2.13
2022-10-08T16:01:31.011Z,1.20
2022-10-08T16:03:58.576Z,1.67
2022-10-08T16:06:35.846Z,1.63
2022-10-08T16:09:03.750Z,1.50
2022-10-08T16:11:32.639Z,1.40
2022-10-08T16:14:00.429Z,1.48
2022-10-08T16:16:27.319Z,1.75
2022-10-08T16:19:00.283Z,1.70
2022-10-08T16:21:28.627Z,1.27
2022-10-08T16:23:56.236Z,1.75
2022-10-08T16:26:23.012Z,1.33
2022-10-08T16:28:57.677Z,1.83
2022-10-08T16:31:26.145Z,1.70
2022-10-08T16:33:57.641Z,1.50
2022-10-08T16:36:25.236Z,1.58
2022-10-08T16:38:53.138Z,1.63
2022-10-08T16:41:28.667Z,1.60
2022-10-08T16:43:58.008Z,1.80
2022-10-08T16:46:29.981Z,1.48
2022-10-08T16:49:01.695Z,1.42
2022-10-08T16:54:01.389Z,1.88
2022-10-08T16:56:32.751Z,2.05
2022-10-08T16:59:06.021Z,2.13
2022-10-08T17:01:34.107Z,2.80
2022-10-08T17:04:01.021Z,2.35
2022-10-08T17:06:28.987Z,2.00
2022-10-08T17:08:55.655Z,2.05
2022-10-08T17:11:22.370Z,1.85
2022-10-08T17:13:54.243Z,2.20
2022-10-08T17:16:22.518Z,1.85
2022-10-08T17:18:57.185Z,1.73
2022-10-08T17:21:24.129Z,1.45
2022-10-08T17:23:51.237Z,1.23
2022-10-08T17:26:25.422Z,1.15
2022-10-08T17:28:52.549Z,1.40
2022-10-08T17:31:28.966Z,1.40
2022-10-08T17:33:55.976Z,1.50
2022-10-08T17:36:25.796Z,1.30
2022-10-08T17:38:54.717Z,1.35
2022-10-08T17:41:25.547Z,1.60
2022-10-08T17:43:55.550Z,1.70
2022-10-08T17:46:45.540Z,1.45
2022-10-08T17:49:14.786Z,1.50
2022-10-08T17:51:41.742Z,1.30
2022-10-08T17:54:12.368Z,1.50
2022-10-08T17:56:39.066Z,1.70
2022-10-08T17:59:05.730Z,1.98
2022-10-08T18:01:34.997Z,1.80
2022-10-08T18:04:06.832Z,2.08
2022-10-08T18:06:35.562Z,1.85
2022-10-08T18:09:05.307Z,1.70
2022-10-08T18:11:34.626Z,2.20
2022-10-08T18:14:01.960Z,2.17
2022-10-08T18:16:28.710Z,1.48
2022-10-08T18:18:55.557Z,1.98
2022-10-08T18:21:22.714Z,1.85
2022-10-08T18:23:50.177Z,1.98
2022-10-08T18:26:21.698Z,2.00
2022-10-08T18:28:54.196Z,1.92
2022-10-08T18:31:22.685Z,1.77
2022-10-08T18:33:52.182Z,2.17
2022-10-08T18:36:21.810Z,1.80
2022-10-08T18:38:53.337Z,2.15
2022-10-08T18:41:25.980Z,2.85
2022-10-08T18:43:53.041Z,2.28
2022-10-08T18:46:21.296Z,2.35
2022-10-08T18:48:48.544Z,2.42
2022-10-08T18:51:17.859Z,2.95
2022-10-08T18:53:46.219Z,2.20
2022-10-08T18:56:28.986Z,2.60
2022-10-08T18:59:01.703Z,2.92
2022-10-08T19:01:31.314Z,3.45
2022-10-08T19:04:00.223Z,2.58
2022-10-08T19:06:29.733Z,3.03
2022-10-08T19:08:58.395Z,3.17
2022-10-08T19:11:30.098Z,3.60
2022-10-08T19:13:56.848Z,2.37
2022-10-08T19:16:23.637Z,2.75
2022-10-08T19:19:02.300Z,3.00
2022-10-08T19:21:30.562Z,4.65
2022-10-08T19:23:58.143Z,2.70
2022-10-08T19:26:26.586Z,3.42
2022-10-08T19:28:54.551Z,3.60
2022-10-08T19:31:27.086Z,3.17
2022-10-08T19:33:56.847Z,3.45
2022-10-08T19:36:25.796Z,4.05
2022-10-08T19:38:57.641Z,3.78
2022-10-08T19:41:25.583Z,4.32
2022-10-08T19:43:53.976Z,3.67
2022-10-08T19:46:21.518Z,4.55
2022-10-08T19:48:53.498Z,4.72
2022-10-08T19:51:21.586Z,4.18
2022-10-08T19:53:49.459Z,4.90
2022-10-08T19:56:17.611Z,4.60
2022-10-08T19:58:48.456Z,4.95
2022-10-08T20:01:20.560Z,5.13
2022-10-08T20:06:24.105Z,5.13
2022-10-08T20:08:56.950Z,6.25
2022-10-08T20:11:24.424Z,6.15
2022-10-08T20:13:52.643Z,5.82
2022-10-08T20:16:26.056Z,6.18
2022-10-08T20:19:01.261Z,7.55
2022-10-08T20:21:30.386Z,7.32
2022-10-08T20:23:57.698Z,8.68
2022-10-08T20:26:29.825Z,9.90
2022-10-08T20:29:08.637Z,11.35
2022-10-08T20:31:41.223Z,11.25
2022-10-08T20:34:13.073Z,12.73
2022-10-08T20:36:40.013Z,11.35
2022-10-08T20:39:07.218Z,12.02
2022-10-08T20:41:33.878Z,10.88
2022-10-08T20:44:02.746Z,10.27
2022-10-08T20:46:30.407Z,10.30
2022-10-08T20:48:57.744Z,9.35
2022-10-08T20:51:26.073Z,9.65
2022-10-08T20:53:58.196Z,9.50
2022-10-08T20:56:25.906Z,9.45
2022-10-08T20:58:53.216Z,9.80
2022-10-08T21:01:23.527Z,9.30
2022-10-08T21:03:50.993Z,8.80
2022-10-08T21:06:26.210Z,9.80
2022-10-08T21:08:54.484Z,9.95
2022-10-08T21:11:24.019Z,8.02
2022-10-08T21:13:51.016Z,7.88
2022-10-08T21:16:24.841Z,8.65
2022-10-08T21:18:54.495Z,8.90
2022-10-08T21:21:21.338Z,7.75
2022-10-08T21:23:49.006Z,7.28
2022-10-08T21:26:18.955Z,7.50
2022-10-08T21:28:47.405Z,6.50
2022-10-08T21:31:15.465Z,7.13
2022-10-08T21:33:44.783Z,6.68
2022-10-08T21:36:35.721Z,8.07
2022-10-08T21:39:05.070Z,6.53
2022-10-08T21:41:33.743Z,7.38
2022-10-08T21:44:03.395Z,6.60
2022-10-08T21:46:32.421Z,7.15
2022-10-08T21:49:01.570Z,6.95
2022-10-08T21:51:29.888Z,7.45
2022-10-08T21:53:59.491Z,7.07
2022-10-08T21:56:29.056Z,7.35
2022-10-08T21:58:59.344Z,7.50
2022-10-08T22:01:29.778Z,7.18
2022-10-08T22:03:58.918Z,7.15
2022-10-08T22:06:27.406Z,7.40
2022-10-08T22:08:54.709Z,7.20
2022-10-08T22:11:22.083Z,6.88
2022-10-08T22:13:49.340Z,7.28
2022-10-08T22:16:18.893Z,6.93
2022-10-08T22:18:46.135Z,6.63
2022-10-08T22:21:16.029Z,6.30
2022-10-08T22:23:43.248Z,6.72
2022-10-08T22:26:13.341Z,6.78
2022-10-08T22:28:40.897Z,6.72
2022-10-08T22:31:09.480Z,6.85
2022-10-08T22:33:36.867Z,7.47
2022-10-08T22:36:09.301Z,7.45
2022-10-08T22:38:37.841Z,7.28
2022-10-08T22:41:07.046Z,7.35
2022-10-08T22:43:34.824Z,7.13
2022-10-08T22:46:07.079Z,6.40
2022-10-08T22:48:34.271Z,7.00
2022-10-08T22:51:07.350Z,6.65
2022-10-08T22:53:34.637Z,5.88
2022-10-08T22:56:05.067Z,6.30
2022-10-08T22:58:32.587Z,6.65
2022-10-08T23:01:11.026Z,6.72
2022-10-08T23:03:38.100Z,6.88
2022-10-08T23:06:07.833Z,6.55
2022-10-08T23:08:35.798Z,6.60
2022-10-08T23:11:03.544Z,6.72
2022-10-08T23:13:31.766Z,7.05
2022-10-08T23:16:03.651Z,5.93
2022-10-08T23:18:32.102Z,6.82
2022-10-08T23:21:04.812Z,7.20
2022-10-08T23:23:32.685Z,6.85
2022-10-08T23:26:02.153Z,6.88
2022-10-08T23:28:29.736Z,7.43
2022-10-08T23:31:04.352Z,7.47
2022-10-08T23:33:31.209Z,7.00
2022-10-08T23:35:58.063Z,6.95
2022-10-08T23:38:24.793Z,7.15
2022-10-08T23:40:51.555Z,7.57
2022-10-08T23:43:18.292Z,7.97
2022-10-08T23:45:45.011Z,7.53
2022-10-08T23:48:11.789Z,7.38
2022-10-08T23:50:39.026Z,6.95
2022-10-08T23:53:06.035Z,7.28
2022-10-08T23:55:32.871Z,7.75
2022-10-08T23:57:59.522Z,7.00
